Date,TemperatureHighF,TemperatureAvgF,TemperatureLowF,DewpointHighF,DewpointAvgF,DewpointLowF,HumidityHigh,HumidityAvg,HumidityLow,PressureMaxIn,PressureMinIn,WindSpeedMaxMPH,WindSpeedAvgMPH,GustSpeedMaxMPH,PrecipitationSumIn
2013-6-1,65.7,65.2,64.5,61.1,60.5,59.9,86,85,84,29.85,29.81,1,0,4,0.00
2013-6-2,68.6,65.6,63.7,61.8,59.8,57.4,85,82,76,29.83,29.76,7,2,0,0.00
2013-6-3,72.0,65.6,63.4,61.8,58.9,57.7,83,79,70,29.88,29.79,8,3,11,0.00
2013-6-4,72.0,65.9,62.9,60.9,58.7,57.4,84,78,66,29.96,29.88,9,3,12,0.00
2013-6-5,74.7,66.6,61.8,60.6,58.4,56.7,84,75,60,30.00,29.90,9,4,14,0.00
2013-6-6,73.5,64.7,61.2,62.2,58.3,56.3,85,80,66,29.95,29.85,8,3,13,0.00
2013-6-7,69.3,64.1,61.7,61.5,58.2,56.7,85,81,75,29.90,29.78,9,2,12,0.00
2013-6-8,68.6,64.2,62.1,60.8,58.6,57.4,86,82,75,29.90,29.78,7,3,11,0.00
2013-6-9,68.5,63.7,58.5,61.4,58.2,54.3,86,82,75,29.93,29.87,7,2,12,0.00
2013-6-10,76.0,66.8,58.4,61.0,58.4,54.2,87,75,58,29.95,29.88,9,3,15,0.00
2013-6-11,80.9,67.6,60.6,66.4,60.5,56.7,87,79,59,29.93,29.86,7,2,10,0.00
2013-6-12,69.0,65.6,64.0,61.8,60.1,58.5,86,82,76,30.03,29.92,8,3,13,0.00
2013-6-13,75.5,67.6,61.6,62.8,59.9,57.0,86,77,63,30.01,29.88,8,3,13,0.00
2013-6-14,69.8,65.0,60.3,60.8,58.7,56.2,88,80,71,29.92,29.84,8,3,15,0.00
2013-6-15,72.3,65.5,60.6,60.5,57.8,56.1,86,77,65,29.97,29.88,7,3,11,0.00
2013-6-16,75.8,65.6,60.0,62.3,58.6,55.9,87,78,61,30.02,29.93,8,2,14,0.00
2013-6-17,75.5,66.3,58.5,63.5,59.6,55.0,89,79,59,29.98,29.87,9,2,14,0.00
2013-6-18,73.5,66.9,59.7,63.9,60.7,56.1,89,81,68,29.92,29.82,8,3,13,0.00
2013-6-19,69.6,63.6,61.5,60.9,58.8,57.3,88,84,73,29.86,29.80,4,1,9,0.00
2013-6-20,74.7,67.2,58.3,64.1,59.7,54.8,89,78,54,29.86,29.79,8,3,0,0.00
2013-6-21,74.0,67.4,59.3,64.6,60.6,55.7,89,79,68,29.90,29.82,7,3,0,0.00
2013-6-22,73.9,67.6,63.7,62.6,60.5,58.8,86,79,62,29.91,29.80,6,2,9,0.00
2013-6-23,71.0,66.1,64.0,61.4,59.5,57.7,85,80,70,29.87,29.79,8,3,12,0.00
2013-6-24,74.2,67.4,63.4,62.2,60.0,58.7,86,78,63,29.94,29.82,7,3,12,0.00
2013-6-25,77.4,67.3,62.9,65.1,61.4,59.0,88,82,62,29.99,29.89,7,2,11,0.00
2013-6-26,78.5,68.9,61.6,67.0,62.5,58.0,89,81,64,29.97,29.90,9,2,11,0.00